createdAt,value
2022-09-17T00:01:49.110Z,1.00
2022-09-17T00:04:21.798Z,1.10
2022-09-17T00:06:53.556Z,1.30
2022-09-17T00:09:26.182Z,1.20
2022-09-17T00:11:58.089Z,1.10
2022-09-17T00:14:31.476Z,1.20
2022-09-17T00:17:03.175Z,1.40
2022-09-17T00:19:34.923Z,1.50
2022-09-17T00:22:06.770Z,1.40
2022-09-17T00:24:39.308Z,1.50
2022-09-17T00:27:11.081Z,1.10
2022-09-17T00:29:43.588Z,1.90
2022-09-17T00:32:15.498Z,1.20
2022-09-17T00:34:50.026Z,1.60
2022-09-17T00:37:22.294Z,1.50
2022-09-17T00:39:54.275Z,1.10
2022-09-17T00:42:26.092Z,1.20
2022-09-17T00:44:59.159Z,1.50
2022-09-17T00:47:36.230Z,1.50
2022-09-17T00:50:16.695Z,1.40
2022-09-17T00:52:51.829Z,1.30
2022-09-17T00:55:28.608Z,1.30
2022-09-17T00:58:04.255Z,1.10
2022-09-17T01:00:39.625Z,1.60
2022-09-17T01:03:11.802Z,1.20
2022-09-17T01:05:50.158Z,1.10
2022-09-17T01:08:28.945Z,1.20
2022-09-17T01:11:22.675Z,1.10
2022-09-17T01:14:15.339Z,1.00
2022-09-17T01:16:58.846Z,1.10
2022-09-17T01:19:58.710Z,1.20
2022-09-17T01:22:36.406Z,1.30
2022-09-17T01:25:25.726Z,2.20
2022-09-17T01:28:42.929Z,1.10
2022-09-17T01:31:30.662Z,1.20
2022-09-17T01:34:14.262Z,1.30
2022-09-17T01:36:59.418Z,1.10
2022-09-17T01:39:44.532Z,1.10
2022-09-17T01:42:25.370Z,1.10
2022-09-17T01:45:04.300Z,1.40
2022-09-17T01:47:39.890Z,1.40
2022-09-17T01:50:22.346Z,1.00
2022-09-17T01:52:58.037Z,1.30
2022-09-17T01:55:34.883Z,1.40
2022-09-17T01:58:11.421Z,1.10
2022-09-17T02:00:51.218Z,1.10
2022-09-17T02:03:30.407Z,1.20
2022-09-17T02:06:06.845Z,1.20
2022-09-17T02:08:42.776Z,1.40
2022-09-17T02:11:20.546Z,1.40
2022-09-17T02:13:59.261Z,1.40
2022-09-17T02:16:34.244Z,1.40
2022-09-17T02:19:11.792Z,1.30
2022-09-17T02:21:50.732Z,1.50
2022-09-17T02:24:26.801Z,1.20
2022-09-17T02:27:03.249Z,1.60
2022-09-17T02:29:37.314Z,1.30
2022-09-17T02:32:11.578Z,1.30
2022-09-17T02:34:43.314Z,1.30
2022-09-17T02:37:16.386Z,1.40
2022-09-17T02:39:48.389Z,1.00
2022-09-17T02:42:31.054Z,1.20
2022-09-17T02:45:10.814Z,1.20
2022-09-17T02:48:09.106Z,1.30
2022-09-17T02:51:06.085Z,1.20
2022-09-17T02:53:48.954Z,1.00
2022-09-17T02:56:34.129Z,1.00
2022-09-17T02:59:16.778Z,1.00
2022-09-17T03:01:53.440Z,0.90
2022-09-17T03:04:30.214Z,1.30
2022-09-17T03:07:06.110Z,1.00
2022-09-17T03:09:37.844Z,1.00
2022-09-17T03:12:10.165Z,1.10
2022-09-17T03:14:41.941Z,0.90
2022-09-17T03:17:15.009Z,0.90
2022-09-17T03:19:46.821Z,0.80
2022-09-17T03:22:18.588Z,1.10
2022-09-17T03:24:51.524Z,0.90
2022-09-17T03:27:23.286Z,1.00
2022-09-17T03:29:55.092Z,0.80
2022-09-17T03:32:27.110Z,0.80
2022-09-17T03:34:59.954Z,1.10
2022-09-17T03:37:33.152Z,1.00
2022-09-17T03:40:12.113Z,0.90
2022-09-17T03:42:43.927Z,1.00
2022-09-17T03:45:17.463Z,1.00
2022-09-17T03:47:49.179Z,1.20
2022-09-17T03:50:24.288Z,0.80
2022-09-17T03:52:56.026Z,0.80
2022-09-17T03:55:27.875Z,0.70
2022-09-17T03:57:59.713Z,0.70
2022-09-17T04:00:34.126Z,0.70
2022-09-17T04:03:06.038Z,0.70
2022-09-17T04:05:38.604Z,0.70
2022-09-17T04:08:10.294Z,0.70
2022-09-17T04:10:45.267Z,0.80
2022-09-17T04:13:18.472Z,0.70
2022-09-17T04:15:50.311Z,0.70
2022-09-17T04:18:22.224Z,0.60
2022-09-17T04:20:58.120Z,0.80
2022-09-17T04:23:30.200Z,0.60
2022-09-17T04:26:02.010Z,0.50
2022-09-17T04:28:33.776Z,1.00
2022-09-17T04:31:06.534Z,0.60
2022-09-17T04:33:38.311Z,0.80
2022-09-17T04:36:10.090Z,0.80
2022-09-17T04:38:41.811Z,0.70
2022-09-17T04:41:13.645Z,0.60
2022-09-17T04:43:45.380Z,0.70
2022-09-17T04:46:18.098Z,0.70
2022-09-17T04:48:49.958Z,0.50
2022-09-17T04:51:24.109Z,1.10
2022-09-17T04:53:55.860Z,0.90
2022-09-17T04:56:27.592Z,0.80
2022-09-17T04:58:59.396Z,0.90
2022-09-17T05:01:32.783Z,0.90
2022-09-17T05:04:04.847Z,1.00
2022-09-17T05:06:37.465Z,1.00
2022-09-17T05:09:09.914Z,0.90
2022-09-17T05:11:42.572Z,0.90
2022-09-17T05:14:14.531Z,1.10
2022-09-17T05:16:47.003Z,0.80
2022-09-17T05:19:18.805Z,0.70
2022-09-17T05:21:51.477Z,0.70
2022-09-17T05:24:23.263Z,0.70
2022-09-17T05:26:55.138Z,0.80
2022-09-17T05:29:26.908Z,0.80
2022-09-17T05:31:58.893Z,0.70
2022-09-17T05:34:30.574Z,1.10
2022-09-17T05:37:02.335Z,0.80
2022-09-17T05:39:34.045Z,1.30
2022-09-17T05:42:07.611Z,1.10
2022-09-17T05:44:39.352Z,1.20
2022-09-17T05:47:11.125Z,1.40
2022-09-17T05:49:42.764Z,1.80
2022-09-17T05:52:16.059Z,1.80
2022-09-17T05:54:48.636Z,1.90
2022-09-17T05:57:20.590Z,2.20
2022-09-17T05:59:52.417Z,1.50
2022-09-17T06:02:24.169Z,3.10
2022-09-17T06:04:55.900Z,2.10
2022-09-17T06:07:27.916Z,2.60
2022-09-17T06:09:59.643Z,2.80
2022-09-17T06:12:32.322Z,2.90
2022-09-17T06:15:04.102Z,3.00
2022-09-17T06:17:37.314Z,2.80
2022-09-17T06:20:10.914Z,2.80
2022-09-17T06:22:43.526Z,3.30
2022-09-17T06:25:15.725Z,2.90
2022-09-17T06:27:47.466Z,3.80
2022-09-17T06:30:24.215Z,3.40
2022-09-17T06:32:56.868Z,3.50
2022-09-17T06:35:28.566Z,3.80
2022-09-17T06:38:00.571Z,3.70
2022-09-17T06:40:33.837Z,4.40
2022-09-17T06:43:06.010Z,4.10
2022-09-17T06:45:37.670Z,4.00
2022-09-17T06:48:11.255Z,4.00
2022-09-17T06:50:43.072Z,4.30
2022-09-17T06:53:14.796Z,4.60
2022-09-17T06:55:46.516Z,3.90
2022-09-17T06:58:18.315Z,4.50
2022-09-17T07:00:50.158Z,4.20
2022-09-17T07:03:23.393Z,4.40
2022-09-17T07:05:55.324Z,4.40
2022-09-17T07:08:27.492Z,5.00
2022-09-17T07:10:59.481Z,4.60
2022-09-17T07:13:31.341Z,5.20
2022-09-17T07:16:05.629Z,4.90
2022-09-17T07:18:37.437Z,5.10
2022-09-17T07:21:11.214Z,5.20
2022-09-17T07:23:43.905Z,5.10
2022-09-17T07:26:17.629Z,5.20
2022-09-17T07:28:49.494Z,4.80
2022-09-17T07:31:21.525Z,4.60
2022-09-17T07:33:53.495Z,4.80
2022-09-17T07:36:25.202Z,4.30
2022-09-17T07:39:00.204Z,4.20
2022-09-17T07:41:32.443Z,3.80
2022-09-17T07:44:11.694Z,3.80
2022-09-17T07:46:43.793Z,3.60
2022-09-17T07:49:15.690Z,3.80
2022-09-17T07:51:47.421Z,3.20
2022-09-17T07:54:21.385Z,2.90
2022-09-17T07:56:53.151Z,2.80
2022-09-17T07:59:24.918Z,2.70
2022-09-17T08:01:56.734Z,2.80
2022-09-17T08:04:29.394Z,2.70
2022-09-17T08:07:01.621Z,2.30
2022-09-17T08:09:33.667Z,2.30
2022-09-17T08:12:05.784Z,2.40
2022-09-17T08:14:37.554Z,2.50
2022-09-17T08:17:10.855Z,2.20
2022-09-17T08:19:43.054Z,2.00
2022-09-17T08:22:14.772Z,2.10
2022-09-17T08:24:47.509Z,2.30
2022-09-17T08:27:19.218Z,2.20
2022-09-17T08:29:50.999Z,2.20
2022-09-17T08:32:23.177Z,2.30
2022-09-17T08:34:58.209Z,1.90
2022-09-17T08:37:30.905Z,2.60
2022-09-17T08:40:09.065Z,2.30
2022-09-17T08:42:51.629Z,1.70
2022-09-17T08:45:35.577Z,2.00
2022-09-17T08:48:12.151Z,1.80
2022-09-17T08:50:45.728Z,1.90
2022-09-17T08:53:32.239Z,1.90
2022-09-17T08:56:09.851Z,2.00
2022-09-17T08:58:53.211Z,1.60
2022-09-17T09:01:35.660Z,1.80
2022-09-17T09:04:46.398Z,1.90
2022-09-17T09:07:21.845Z,2.00
2022-09-17T09:10:09.761Z,2.20
2022-09-17T09:12:43.689Z,1.70
2022-09-17T09:15:27.507Z,1.60
2022-09-17T09:18:04.641Z,1.60
2022-09-17T09:20:49.332Z,1.20
2022-09-17T09:23:29.394Z,1.60
2022-09-17T09:26:13.349Z,2.10
2022-09-17T09:29:04.388Z,2.10
2022-09-17T09:31:48.652Z,2.20
2022-09-17T09:34:20.912Z,2.00
2022-09-17T09:36:52.957Z,1.90
2022-09-17T09:39:41.238Z,2.30
2022-09-17T09:42:24.885Z,1.80
2022-09-17T09:45:00.507Z,2.10
2022-09-17T09:47:57.169Z,2.40
2022-09-17T09:51:04.766Z,1.80
2022-09-17T09:53:44.244Z,2.10
2022-09-17T09:56:32.967Z,2.10
2022-09-17T09:59:07.524Z,2.00
2022-09-17T10:01:44.358Z,2.10
2022-09-17T10:04:22.231Z,2.00
2022-09-17T10:06:55.928Z,2.60
2022-09-17T10:09:30.070Z,2.90
2022-09-17T10:12:16.374Z,2.80
2022-09-17T10:14:48.753Z,3.90
2022-09-17T10:17:23.432Z,4.10
2022-09-17T10:20:22.909Z,3.90
2022-09-17T10:22:54.810Z,2.80
2022-09-17T10:25:31.382Z,2.10
2022-09-17T10:28:14.341Z,2.20
2022-09-17T10:30:59.380Z,1.90
2022-09-17T10:33:32.765Z,2.00
2022-09-17T10:36:07.844Z,2.60
2022-09-17T10:38:42.134Z,2.60
2022-09-17T10:41:16.762Z,2.30
2022-09-17T10:43:49.189Z,2.20
2022-09-17T10:46:27.745Z,2.10
2022-09-17T10:49:11.328Z,1.90
2022-09-17T10:51:43.124Z,1.90
2022-09-17T10:54:42.447Z,1.90
2022-09-17T10:57:24.959Z,1.80
2022-09-17T11:00:20.918Z,2.10
2022-09-17T11:03:20.121Z,2.00
2022-09-17T11:06:15.430Z,2.00
2022-09-17T11:08:57.621Z,2.20
2022-09-17T11:11:41.199Z,2.00
2022-09-17T11:14:21.718Z,1.80
2022-09-17T11:17:06.018Z,1.80
2022-09-17T11:19:47.729Z,1.70
2022-09-17T11:22:28.218Z,1.60
2022-09-17T11:25:16.474Z,1.70
2022-09-17T11:28:03.520Z,2.30
2022-09-17T11:30:47.331Z,2.20
2022-09-17T11:33:49.109Z,1.90
2022-09-17T11:36:27.061Z,1.60
2022-09-17T11:39:08.814Z,1.90
2022-09-17T11:41:43.680Z,1.90
2022-09-17T11:44:24.001Z,1.50
2022-09-17T11:46:59.816Z,1.30
2022-09-17T11:49:40.455Z,1.60
2022-09-17T11:52:17.831Z,1.70
2022-09-17T11:54:54.962Z,1.90
2022-09-17T11:57:32.906Z,1.90
2022-09-17T12:00:12.802Z,1.80
2022-09-17T12:02:51.465Z,2.80
2022-09-17T12:05:27.697Z,1.50
2022-09-17T12:08:09.299Z,1.40
2022-09-17T12:10:50.454Z,1.20
2022-09-17T12:13:29.375Z,1.10
2022-09-17T12:16:11.783Z,1.20
2022-09-17T12:19:04.346Z,1.00
2022-09-17T12:21:42.037Z,1.20
2022-09-17T12:24:22.703Z,1.50
2022-09-17T12:27:03.411Z,1.20
2022-09-17T12:30:04.400Z,1.50
2022-09-17T12:32:53.904Z,1.70
2022-09-17T12:38:53.956Z,1.90
2022-09-17T12:41:34.216Z,1.70
2022-09-17T12:44:24.942Z,1.40
2022-09-17T12:47:13.046Z,1.20
2022-09-17T12:49:58.565Z,0.90
2022-09-17T12:52:40.591Z,1.40
2022-09-17T12:55:35.561Z,1.30
2022-09-17T12:58:20.892Z,1.10
2022-09-17T13:01:02.692Z,1.30
2022-09-17T13:03:41.289Z,1.40
2022-09-17T13:06:43.737Z,1.10
2022-09-17T13:09:45.450Z,1.70
2022-09-17T13:12:26.327Z,1.00
2022-09-17T13:18:12.731Z,1.70
2022-09-17T13:21:05.695Z,1.70
2022-09-17T13:23:41.654Z,1.90
2022-09-17T13:26:17.137Z,1.80
2022-09-17T13:28:50.675Z,1.80
2022-09-17T13:31:45.460Z,1.90
2022-09-17T13:34:33.037Z,1.60
2022-09-17T13:37:06.263Z,1.70
2022-09-17T13:39:43.431Z,1.70
2022-09-17T13:42:27.876Z,1.80
2022-09-17T13:45:13.278Z,2.00
2022-09-17T13:47:53.765Z,2.70
2022-09-17T13:50:34.200Z,1.90
2022-09-17T13:53:19.449Z,3.40
2022-09-17T13:55:55.022Z,3.10
2022-09-17T13:58:30.845Z,2.70
2022-09-17T14:01:04.788Z,2.30
2022-09-17T14:03:55.749Z,2.30
2022-09-17T14:06:55.050Z,2.40
2022-09-17T14:09:50.264Z,2.10
2022-09-17T14:12:58.335Z,2.30
2022-09-17T14:16:02.583Z,2.40
2022-09-17T14:19:01.555Z,2.70
2022-09-17T14:21:36.119Z,2.60
2022-09-17T14:24:23.510Z,2.30
2022-09-17T14:27:13.296Z,1.80
2022-09-17T14:30:11.695Z,2.30
2022-09-17T14:32:49.411Z,1.80
2022-09-17T14:35:26.307Z,2.10
2022-09-17T14:38:01.364Z,2.20
2022-09-17T14:40:43.211Z,2.20
2022-09-17T14:43:20.864Z,2.90
2022-09-17T14:45:53.999Z,4.60
2022-09-17T14:48:32.345Z,2.30
2022-09-17T14:51:29.168Z,3.10
2022-09-17T14:54:21.620Z,3.10
2022-09-17T14:57:01.934Z,2.20
2022-09-17T14:59:51.502Z,2.50
2022-09-17T15:02:44.052Z,2.30
2022-09-17T15:05:27.275Z,2.40
2022-09-17T15:08:17.497Z,4.10
2022-09-17T15:10:53.221Z,2.70
2022-09-17T15:13:30.186Z,2.80
2022-09-17T15:16:11.342Z,2.90
2022-09-17T15:18:45.405Z,2.70
2022-09-17T15:21:30.979Z,3.30
2022-09-17T15:24:14.695Z,3.10
2022-09-17T15:26:50.661Z,2.50
2022-09-17T15:29:25.454Z,2.60
2022-09-17T15:31:57.487Z,2.30
2022-09-17T15:34:29.231Z,2.50
2022-09-17T15:37:08.594Z,2.70
2022-09-17T15:39:50.236Z,2.60
2022-09-17T15:42:25.010Z,2.20
2022-09-17T15:45:10.378Z,2.50
2022-09-17T15:47:53.803Z,1.70
2022-09-17T15:50:32.551Z,1.80
2022-09-17T15:53:25.061Z,1.90
2022-09-17T15:56:07.283Z,1.80
2022-09-17T15:58:55.258Z,2.80
2022-09-17T16:01:54.104Z,1.90
2022-09-17T16:04:33.360Z,2.00
2022-09-17T16:07:31.790Z,2.00
2022-09-17T16:10:03.674Z,2.20
2022-09-17T16:12:40.174Z,1.90
2022-09-17T16:15:17.503Z,2.00
2022-09-17T16:17:50.401Z,1.60
2022-09-17T16:20:26.651Z,1.90
2022-09-17T16:22:59.245Z,1.80
2022-09-17T16:25:31.632Z,1.60
2022-09-17T16:28:07.702Z,1.60
2022-09-17T16:30:41.809Z,1.40
2022-09-17T16:33:15.858Z,1.30
2022-09-17T16:35:47.747Z,2.10
2022-09-17T16:38:19.564Z,2.00
2022-09-17T16:40:51.905Z,2.20
2022-09-17T16:43:24.148Z,2.20
2022-09-17T16:46:04.588Z,2.10
2022-09-17T16:48:36.401Z,2.80
2022-09-17T16:51:12.025Z,2.70
2022-09-17T16:53:43.934Z,2.30
2022-09-17T16:56:17.050Z,1.80
2022-09-17T16:58:49.642Z,1.50
2022-09-17T17:01:21.486Z,1.80
2022-09-17T17:03:55.725Z,1.60
2022-09-17T17:06:27.747Z,2.00
2022-09-17T17:09:01.165Z,2.70
2022-09-17T17:11:32.946Z,2.70
2022-09-17T17:14:06.043Z,3.00
2022-09-17T17:16:37.851Z,3.10
2022-09-17T17:19:09.690Z,3.50
2022-09-17T17:21:45.243Z,4.00
2022-09-17T17:24:18.993Z,3.00
2022-09-17T17:26:50.796Z,3.00
2022-09-17T17:29:22.581Z,3.40
2022-09-17T17:31:54.318Z,2.70
2022-09-17T17:34:26.185Z,2.90
2022-09-17T17:36:57.882Z,3.10
2022-09-17T17:39:29.659Z,3.80
2022-09-17T17:42:01.348Z,3.90
2022-09-17T17:44:33.144Z,4.10
2022-09-17T17:47:07.768Z,4.40
2022-09-17T17:49:39.647Z,5.10
2022-09-17T17:52:11.342Z,4.50
2022-09-17T17:54:43.104Z,4.80
2022-09-17T17:57:14.892Z,4.90
2022-09-17T17:59:47.092Z,5.20
2022-09-17T18:02:18.959Z,5.90
2022-09-17T18:04:50.719Z,5.70
2022-09-17T18:07:22.530Z,4.80
2022-09-17T18:09:54.254Z,4.80
2022-09-17T18:12:27.121Z,8.00
2022-09-17T18:14:59.045Z,7.90
2022-09-17T18:17:31.586Z,8.40
2022-09-17T18:20:33.239Z,7.90
2022-09-17T18:23:05.035Z,6.40
2022-09-17T18:25:52.796Z,5.80
2022-09-17T18:28:25.394Z,6.10
2022-09-17T18:30:57.348Z,5.80
2022-09-17T18:33:29.694Z,5.20
2022-09-17T18:36:05.650Z,4.90
2022-09-17T18:38:39.655Z,4.80
2022-09-17T18:41:14.645Z,5.50
2022-09-17T18:43:46.750Z,5.50
2022-09-17T18:46:18.504Z,5.90
2022-09-17T18:48:54.550Z,6.90
2022-09-17T18:51:29.917Z,7.30
2022-09-17T18:54:03.417Z,8.20
2022-09-17T18:56:36.072Z,10.00
2022-09-17T18:59:08.450Z,10.30
2022-09-17T19:01:40.470Z,9.00
2022-09-17T19:04:12.481Z,9.90
2022-09-17T19:06:44.235Z,11.60
2022-09-17T19:09:16.106Z,12.70
2022-09-17T19:11:47.833Z,12.50
2022-09-17T19:14:19.534Z,11.70
2022-09-17T19:16:51.278Z,10.60
2022-09-17T19:19:22.965Z,10.80
2022-09-17T19:21:54.750Z,11.20
2022-09-17T19:24:26.444Z,11.90
2022-09-17T19:26:58.938Z,10.40
2022-09-17T19:29:30.661Z,10.40
2022-09-17T19:32:03.390Z,11.00
2022-09-17T19:34:35.147Z,8.70
2022-09-17T19:37:07.045Z,8.40
2022-09-17T19:39:38.933Z,6.40
2022-09-17T19:42:13.442Z,7.60
2022-09-17T19:44:45.205Z,6.20
2022-09-17T19:47:17.032Z,5.70
2022-09-17T19:49:51.019Z,6.00
2022-09-17T19:52:22.880Z,4.10
2022-09-17T19:54:54.632Z,3.60
2022-09-17T19:57:26.476Z,3.90
2022-09-17T19:59:58.458Z,2.90
2022-09-17T20:02:31.132Z,3.80
2022-09-17T20:05:02.918Z,3.00
2022-09-17T20:07:35.347Z,3.00
2022-09-17T20:10:09.819Z,4.20
2022-09-17T20:12:42.345Z,3.30
2022-09-17T20:15:14.302Z,2.60
2022-09-17T20:17:46.121Z,3.00
2022-09-17T20:20:23.996Z,3.00
2022-09-17T20:22:55.733Z,2.40
2022-09-17T20:25:27.494Z,2.30
2022-09-17T20:28:07.895Z,2.90
2022-09-17T20:30:39.985Z,2.80
2022-09-17T20:33:13.160Z,3.80
2022-09-17T20:35:44.932Z,4.90
2022-09-17T20:39:09.392Z,5.00
2022-09-17T20:41:11.041Z,5.10
2022-09-17T20:43:46.231Z,4.70
2022-09-17T20:46:18.565Z,5.70
2022-09-17T20:48:52.426Z,6.70
2022-09-17T20:51:26.900Z,6.30
2022-09-17T20:53:59.210Z,5.60
2022-09-17T20:56:33.507Z,5.10
2022-09-17T20:59:14.370Z,4.00
2022-09-17T21:01:47.673Z,3.90
2022-09-17T21:04:21.884Z,3.60
2022-09-17T21:06:56.141Z,4.20
2022-09-17T21:09:27.960Z,4.20
2022-09-17T21:11:59.794Z,4.00
2022-09-17T21:14:32.469Z,4.30
2022-09-17T21:17:04.581Z,4.70
2022-09-17T21:19:36.335Z,4.40
2022-09-17T21:22:08.072Z,3.90
2022-09-17T21:24:39.902Z,3.20
2022-09-17T21:27:11.982Z,3.00
2022-09-17T21:29:43.825Z,2.70
2022-09-17T21:32:15.553Z,2.80
2022-09-17T21:34:47.396Z,2.70
2022-09-17T21:37:19.254Z,2.40
2022-09-17T21:39:51.893Z,2.30
2022-09-17T21:42:23.645Z,2.60
2022-09-17T21:44:55.521Z,3.10
2022-09-17T21:47:27.220Z,3.30
2022-09-17T21:49:58.991Z,3.00
2022-09-17T21:52:31.934Z,2.60
2022-09-17T21:55:04.563Z,2.60
2022-09-17T21:57:36.316Z,2.50
2022-09-17T22:00:14.969Z,2.40
2022-09-17T22:02:46.865Z,2.20
2022-09-17T22:05:19.738Z,2.60
2022-09-17T22:07:51.506Z,2.30
2022-09-17T22:10:27.251Z,2.10
2022-09-17T22:12:59.161Z,2.00
2022-09-17T22:15:30.956Z,1.80
2022-09-17T22:18:04.473Z,2.00
2022-09-17T22:20:38.786Z,1.80
2022-09-17T22:23:10.550Z,2.40
2022-09-17T22:25:42.360Z,1.80
2022-09-17T22:28:21.302Z,1.70
2022-09-17T22:30:55.774Z,1.80
2022-09-17T22:33:27.737Z,1.90
2022-09-17T22:36:07.327Z,1.90
2022-09-17T22:38:39.956Z,1.90
2022-09-17T22:41:16.764Z,2.60
2022-09-17T22:43:49.148Z,2.50
2022-09-17T22:46:22.582Z,2.60
2022-09-17T22:48:54.771Z,3.00
2022-09-17T22:51:29.470Z,2.50
2022-09-17T22:54:01.787Z,2.50
2022-09-17T22:56:34.727Z,2.70
2022-09-17T22:59:06.713Z,2.80
2022-09-17T23:01:40.918Z,2.70
2022-09-17T23:04:12.687Z,2.90
2022-09-17T23:06:44.629Z,2.60
2022-09-17T23:09:17.103Z,2.60
2022-09-17T23:11:49.765Z,2.80
2022-09-17T23:14:21.451Z,2.40
2022-09-17T23:16:53.268Z,2.70
2022-09-17T23:19:26.489Z,2.70
2022-09-17T23:21:59.890Z,2.10
2022-09-17T23:24:34.419Z,2.30
2022-09-17T23:27:06.490Z,2.10
2022-09-17T23:29:38.204Z,2.20
2022-09-17T23:32:10.434Z,2.30
2022-09-17T23:34:42.179Z,2.20
2022-09-17T23:37:13.959Z,2.30
2022-09-17T23:39:45.744Z,1.90
2022-09-17T23:42:18.116Z,2.40
2022-09-17T23:44:49.853Z,2.30
2022-09-17T23:47:21.796Z,2.10
2022-09-17T23:49:53.577Z,2.20
2022-09-17T23:52:25.556Z,3.20
2022-09-17T23:54:58.563Z,2.50
2022-09-17T23:57:30.693Z,2.50
